sensor_id;sensor_type;location;lat;lon;timestamp;temperature;humidity
22974;DHT22;11653;50.848;4.584;2023-06-22T00:01:51;22.80;99.90
22974;DHT22;11653;50.848;4.584;2023-06-22T00:04:17;22.80;99.90
22974;DHT22;11653;50.848;4.584;2023-06-22T00:06:43;22.70;99.90
22974;DHT22;11653;50.848;4.584;2023-06-22T00:09:08;22.70;99.90
22974;DHT22;11653;50.848;4.584;2023-06-22T00:11:38;22.80;99.90
22974;DHT22;11653;50.848;4.584;2023-06-22T00:14:04;22.80;99.90
22974;DHT22;11653;50.848;4.584;2023-06-22T00:16:31;22.80;99.90
22974;DHT22;11653;50.848;4.584;2023-06-22T00:18:57;22.80;99.90
22974;DHT22;11653;50.848;4.584;2023-06-22T00:21:28;22.80;99.90
22974;DHT22;11653;50.848;4.584;2023-06-22T00:23:54;22.70;99.90
22974;DHT22;11653;50.848;4.584;2023-06-22T00:26:20;22.70;99.90
22974;DHT22;11653;50.848;4.584;2023-06-22T00:28:46;22.60;99.90
22974;DHT22;11653;50.848;4.584;2023-06-22T00:31:12;22.60;99.90
22974;DHT22;11653;50.848;4.584;2023-06-22T00:33:38;22.50;99.90
22974;DHT22;11653;50.848;4.584;2023-06-22T00:36:04;22.50;99.90
22974;DHT22;11653;50.848;4.584;2023-06-22T00:38:30;22.40;99.90
22974;DHT22;11653;50.848;4.584;2023-06-22T00:40:55;22.40;99.90
22974;DHT22;11653;50.848;4.584;2023-06-22T00:43:21;22.40;99.90
22974;DHT22;11653;50.848;4.584;2023-06-22T00:45:46;22.40;99.90
22974;DHT22;11653;50.848;4.584;2023-06-22T00:48:14;22.40;99.90
22974;DHT22;11653;50.848;4.584;2023-06-22T00:50:40;22.40;99.90
22974;DHT22;11653;50.848;4.584;2023-06-22T00:53:07;22.40;99.90
22974;DHT22;11653;50.848;4.584;2023-06-22T00:55:39;22.40;99.90
22974;DHT22;11653;50.848;4.584;2023-06-22T00:58:09;22.40;99.90
22974;DHT22;11653;50.848;4.584;2023-06-22T01:00:36;22.40;99.90
22974;DHT22;11653;50.848;4.584;2023-06-22T01:03:03;22.30;99.90
22974;DHT22;11653;50.848;4.584;2023-06-22T01:05:29;22.40;99.90
22974;DHT22;11653;50.848;4.584;2023-06-22T01:08:00;22.40;99.90
22974;DHT22;11653;50.848;4.584;2023-06-22T01:13:25;22.40;99.90
22974;DHT22;11653;50.848;4.584;2023-06-22T01:16:05;22.30;99.90
22974;DHT22;11653;50.848;4.584;2023-06-22T01:18:35;22.20;99.90
22974;DHT22;11653;50.848;4.584;2023-06-22T01:21:04;22.10;99.90
22974;DHT22;11653;50.848;4.584;2023-06-22T01:29:06;22.00;99.90
22974;DHT22;11653;50.848;4.584;2023-06-22T01:31:34;21.90;99.90
22974;DHT22;11653;50.848;4.584;2023-06-22T01:34:03;21.90;99.90
22974;DHT22;11653;50.848;4.584;2023-06-22T01:36:31;21.90;99.90
22974;DHT22;11653;50.848;4.584;2023-06-22T01:38:58;21.90;99.90
22974;DHT22;11653;50.848;4.584;2023-06-22T01:41:29;21.90;99.90
22974;DHT22;11653;50.848;4.584;2023-06-22T01:43:56;21.90;99.90
22974;DHT22;11653;50.848;4.584;2023-06-22T01:46:22;21.90;99.90
22974;DHT22;11653;50.848;4.584;2023-06-22T01:48:49;21.90;99.90
22974;DHT22;11653;50.848;4.584;2023-06-22T01:51:16;21.90;99.90
22974;DHT22;11653;50.848;4.584;2023-06-22T01:53:41;21.90;99.90
22974;DHT22;11653;50.848;4.584;2023-06-22T01:56:08;21.80;99.90
22974;DHT22;11653;50.848;4.584;2023-06-22T01:58:37;21.90;99.90
22974;DHT22;11653;50.848;4.584;2023-06-22T02:01:12;21.80;99.90
22974;DHT22;11653;50.848;4.584;2023-06-22T02:03:48;21.70;99.90
22974;DHT22;11653;50.848;4.584;2023-06-22T02:06:26;21.80;99.90
22974;DHT22;11653;50.848;4.584;2023-06-22T02:08:59;21.70;99.90
22974;DHT22;11653;50.848;4.584;2023-06-22T02:11:26;21.60;99.90
22974;DHT22;11653;50.848;4.584;2023-06-22T02:13:53;21.60;99.90
22974;DHT22;11653;50.848;4.584;2023-06-22T02:16:20;21.60;99.90
22974;DHT22;11653;50.848;4.584;2023-06-22T02:18:50;21.60;99.90
22974;DHT22;11653;50.848;4.584;2023-06-22T02:21:17;21.60;99.90
22974;DHT22;11653;50.848;4.584;2023-06-22T02:23:42;21.50;99.90
22974;DHT22;11653;50.848;4.584;2023-06-22T02:26:08;21.50;99.90
22974;DHT22;11653;50.848;4.584;2023-06-22T02:28:34;21.40;99.90
22974;DHT22;11653;50.848;4.584;2023-06-22T02:30:59;21.40;99.90
22974;DHT22;11653;50.848;4.584;2023-06-22T02:33:25;21.40;99.90
22974;DHT22;11653;50.848;4.584;2023-06-22T02:35:51;21.30;99.90
22974;DHT22;11653;50.848;4.584;2023-06-22T02:38:16;21.20;99.90
22974;DHT22;11653;50.848;4.584;2023-06-22T02:40:43;21.20;99.90
22974;DHT22;11653;50.848;4.584;2023-06-22T02:43:08;21.20;99.90
22974;DHT22;11653;50.848;4.584;2023-06-22T02:45:34;21.20;99.90
22974;DHT22;11653;50.848;4.584;2023-06-22T02:47:59;21.10;99.90
22974;DHT22;11653;50.848;4.584;2023-06-22T02:50:25;21.20;99.90
22974;DHT22;11653;50.848;4.584;2023-06-22T02:52:51;21.20;99.90
22974;DHT22;11653;50.848;4.584;2023-06-22T02:55:17;21.10;99.90
22974;DHT22;11653;50.848;4.584;2023-06-22T02:57:42;21.10;99.90
22974;DHT22;11653;50.848;4.584;2023-06-22T03:00:10;21.20;99.90
22974;DHT22;11653;50.848;4.584;2023-06-22T03:02:46;21.20;99.90
22974;DHT22;11653;50.848;4.584;2023-06-22T03:05:13;21.20;99.90
22974;DHT22;11653;50.848;4.584;2023-06-22T03:07:42;21.20;99.90
22974;DHT22;11653;50.848;4.584;2023-06-22T03:10:09;21.10;99.90
22974;DHT22;11653;50.848;4.584;2023-06-22T03:12:35;21.10;99.90
22974;DHT22;11653;50.848;4.584;2023-06-22T03:15:01;21.10;99.90
22974;DHT22;11653;50.848;4.584;2023-06-22T03:17:27;21.00;99.90
22974;DHT22;11653;50.848;4.584;2023-06-22T03:19:52;21.00;99.90
22974;DHT22;11653;50.848;4.584;2023-06-22T03:22:18;21.00;99.90
22974;DHT22;11653;50.848;4.584;2023-06-22T03:24:44;21.10;99.90
22974;DHT22;11653;50.848;4.584;2023-06-22T03:27:09;21.00;99.90
22974;DHT22;11653;50.848;4.584;2023-06-22T03:29:35;21.10;99.90
22974;DHT22;11653;50.848;4.584;2023-06-22T03:32:00;21.10;99.90
22974;DHT22;11653;50.848;4.584;2023-06-22T03:34:27;21.00;99.90
22974;DHT22;11653;50.848;4.584;2023-06-22T03:36:52;20.90;99.90
22974;DHT22;11653;50.848;4.584;2023-06-22T03:39:18;20.90;99.90
22974;DHT22;11653;50.848;4.584;2023-06-22T03:41:44;21.00;99.90
22974;DHT22;11653;50.848;4.584;2023-06-22T03:44:09;21.00;99.90
22974;DHT22;11653;50.848;4.584;2023-06-22T03:46:38;21.10;99.90
22974;DHT22;11653;50.848;4.584;2023-06-22T03:49:03;21.10;99.90
22974;DHT22;11653;50.848;4.584;2023-06-22T03:51:30;21.10;99.90
22974;DHT22;11653;50.848;4.584;2023-06-22T03:53:59;21.10;99.90
22974;DHT22;11653;50.848;4.584;2023-06-22T03:56:24;21.20;99.90
22974;DHT22;11653;50.848;4.584;2023-06-22T03:58:50;21.10;99.90
22974;DHT22;11653;50.848;4.584;2023-06-22T04:01:16;21.20;99.90
22974;DHT22;11653;50.848;4.584;2023-06-22T04:03:42;21.10;99.90
22974;DHT22;11653;50.848;4.584;2023-06-22T04:06:08;21.20;99.90
22974;DHT22;11653;50.848;4.584;2023-06-22T04:08:34;21.20;99.90
22974;DHT22;11653;50.848;4.584;2023-06-22T04:10:59;21.20;99.90
22974;DHT22;11653;50.848;4.584;2023-06-22T04:13:25;21.30;99.90
22974;DHT22;11653;50.848;4.584;2023-06-22T04:15:51;21.30;99.90
22974;DHT22;11653;50.848;4.584;2023-06-22T04:18:16;21.30;99.90
22974;DHT22;11653;50.848;4.584;2023-06-22T04:20:42;21.30;99.90
22974;DHT22;11653;50.848;4.584;2023-06-22T04:23:10;21.30;99.90
22974;DHT22;11653;50.848;4.584;2023-06-22T04:25:35;21.40;99.90
22974;DHT22;11653;50.848;4.584;2023-06-22T04:28:01;21.50;99.90
22974;DHT22;11653;50.848;4.584;2023-06-22T04:30:28;21.50;99.90
22974;DHT22;11653;50.848;4.584;2023-06-22T04:32:57;21.60;99.90
22974;DHT22;11653;50.848;4.584;2023-06-22T04:35:23;21.60;99.90
22974;DHT22;11653;50.848;4.584;2023-06-22T04:37:49;21.60;99.90
22974;DHT22;11653;50.848;4.584;2023-06-22T04:40:15;21.50;99.90
22974;DHT22;11653;50.848;4.584;2023-06-22T04:42:41;21.50;99.90
22974;DHT22;11653;50.848;4.584;2023-06-22T04:45:17;21.40;99.90
22974;DHT22;11653;50.848;4.584;2023-06-22T04:47:43;21.40;99.90
22974;DHT22;11653;50.848;4.584;2023-06-22T04:50:14;21.40;99.90
22974;DHT22;11653;50.848;4.584;2023-06-22T04:52:39;21.40;99.90
22974;DHT22;11653;50.848;4.584;2023-06-22T04:55:06;21.50;99.90
22974;DHT22;11653;50.848;4.584;2023-06-22T04:57:32;21.40;99.90
22974;DHT22;11653;50.848;4.584;2023-06-22T05:00:01;21.40;99.90
22974;DHT22;11653;50.848;4.584;2023-06-22T05:02:27;21.40;99.90
22974;DHT22;11653;50.848;4.584;2023-06-22T05:04:57;21.40;99.90
22974;DHT22;11653;50.848;4.584;2023-06-22T05:07:25;21.50;99.90
22974;DHT22;11653;50.848;4.584;2023-06-22T05:09:51;21.50;99.90
22974;DHT22;11653;50.848;4.584;2023-06-22T05:12:16;21.50;99.90
22974;DHT22;11653;50.848;4.584;2023-06-22T05:14:42;21.50;99.90
22974;DHT22;11653;50.848;4.584;2023-06-22T05:17:07;21.60;99.90
22974;DHT22;11653;50.848;4.584;2023-06-22T05:19:39;21.70;99.90
22974;DHT22;11653;50.848;4.584;2023-06-22T05:22:04;21.70;99.90
22974;DHT22;11653;50.848;4.584;2023-06-22T05:24:31;21.80;99.90
22974;DHT22;11653;50.848;4.584;2023-06-22T05:26:57;21.80;99.90
22974;DHT22;11653;50.848;4.584;2023-06-22T05:29:23;21.90;99.90
22974;DHT22;11653;50.848;4.584;2023-06-22T05:31:49;22.00;99.90
22974;DHT22;11653;50.848;4.584;2023-06-22T05:34:15;22.10;99.90
22974;DHT22;11653;50.848;4.584;2023-06-22T05:36:40;22.30;99.90
22974;DHT22;11653;50.848;4.584;2023-06-22T05:39:12;22.30;99.90
22974;DHT22;11653;50.848;4.584;2023-06-22T05:41:39;22.30;99.90
22974;DHT22;11653;50.848;4.584;2023-06-22T05:44:04;22.50;99.90
22974;DHT22;11653;50.848;4.584;2023-06-22T05:46:30;22.50;99.90
22974;DHT22;11653;50.848;4.584;2023-06-22T05:48:56;22.60;99.90
22974;DHT22;11653;50.848;4.584;2023-06-22T05:51:21;22.70;99.90
22974;DHT22;11653;50.848;4.584;2023-06-22T05:53:47;22.70;99.90
22974;DHT22;11653;50.848;4.584;2023-06-22T05:56:15;22.70;99.90
22974;DHT22;11653;50.848;4.584;2023-06-22T05:58:41;22.70;99.90
22974;DHT22;11653;50.848;4.584;2023-06-22T06:01:07;22.70;99.90
22974;DHT22;11653;50.848;4.584;2023-06-22T06:03:33;22.70;99.90
22974;DHT22;11653;50.848;4.584;2023-06-22T06:05:58;22.80;99.90
22974;DHT22;11653;50.848;4.584;2023-06-22T06:08:24;22.80;99.90
22974;DHT22;11653;50.848;4.584;2023-06-22T06:10:50;22.90;99.90
22974;DHT22;11653;50.848;4.584;2023-06-22T06:13:18;22.90;99.90
22974;DHT22;11653;50.848;4.584;2023-06-22T06:15:44;22.80;99.90
22974;DHT22;11653;50.848;4.584;2023-06-22T06:18:10;22.80;99.90
22974;DHT22;11653;50.848;4.584;2023-06-22T06:20:35;22.90;99.90
22974;DHT22;11653;50.848;4.584;2023-06-22T06:23:01;22.80;99.90
22974;DHT22;11653;50.848;4.584;2023-06-22T06:25:27;22.90;99.90
22974;DHT22;11653;50.848;4.584;2023-06-22T06:27:53;22.90;99.90
22974;DHT22;11653;50.848;4.584;2023-06-22T06:30:20;22.80;99.90
22974;DHT22;11653;50.848;4.584;2023-06-22T06:32:46;22.90;99.90
22974;DHT22;11653;50.848;4.584;2023-06-22T06:35:13;23.00;99.90
22974;DHT22;11653;50.848;4.584;2023-06-22T06:37:41;23.20;99.90
22974;DHT22;11653;50.848;4.584;2023-06-22T06:40:08;23.30;99.90
22974;DHT22;11653;50.848;4.584;2023-06-22T06:42:36;23.40;99.90
22974;DHT22;11653;50.848;4.584;2023-06-22T06:45:04;23.50;99.90
22974;DHT22;11653;50.848;4.584;2023-06-22T06:47:30;23.50;99.90
22974;DHT22;11653;50.848;4.584;2023-06-22T06:49:56;23.30;99.90
22974;DHT22;11653;50.848;4.584;2023-06-22T06:52:21;23.40;99.90
22974;DHT22;11653;50.848;4.584;2023-06-22T06:54:47;23.50;99.90
22974;DHT22;11653;50.848;4.584;2023-06-22T06:57:12;23.50;99.90
22974;DHT22;11653;50.848;4.584;2023-06-22T06:59:39;23.40;99.90
22974;DHT22;11653;50.848;4.584;2023-06-22T07:02:04;23.30;99.90
22974;DHT22;11653;50.848;4.584;2023-06-22T07:04:30;23.20;99.90
22974;DHT22;11653;50.848;4.584;2023-06-22T07:06:56;23.20;99.90
22974;DHT22;11653;50.848;4.584;2023-06-22T07:09:21;23.20;99.90
22974;DHT22;11653;50.848;4.584;2023-06-22T07:11:47;23.30;99.90
22974;DHT22;11653;50.848;4.584;2023-06-22T07:14:13;23.20;99.90
22974;DHT22;11653;50.848;4.584;2023-06-22T07:16:38;23.20;99.90
22974;DHT22;11653;50.848;4.584;2023-06-22T07:19:04;23.20;99.90
22974;DHT22;11653;50.848;4.584;2023-06-22T07:21:29;23.20;99.90
22974;DHT22;11653;50.848;4.584;2023-06-22T07:23:55;23.30;99.90
22974;DHT22;11653;50.848;4.584;2023-06-22T07:26:21;23.40;99.90
22974;DHT22;11653;50.848;4.584;2023-06-22T07:28:47;23.50;99.90
22974;DHT22;11653;50.848;4.584;2023-06-22T07:31:13;23.70;99.90
22974;DHT22;11653;50.848;4.584;2023-06-22T07:33:38;24.00;99.90
22974;DHT22;11653;50.848;4.584;2023-06-22T07:36:04;24.10;99.90
22974;DHT22;11653;50.848;4.584;2023-06-22T07:38:33;24.10;99.90
22974;DHT22;11653;50.848;4.584;2023-06-22T07:40:59;24.20;99.90
22974;DHT22;11653;50.848;4.584;2023-06-22T07:43:25;24.10;99.90
22974;DHT22;11653;50.848;4.584;2023-06-22T07:45:51;24.00;99.90
22974;DHT22;11653;50.848;4.584;2023-06-22T07:48:21;24.00;99.90
22974;DHT22;11653;50.848;4.584;2023-06-22T07:50:47;23.80;99.90
22974;DHT22;11653;50.848;4.584;2023-06-22T07:53:13;23.80;99.90
22974;DHT22;11653;50.848;4.584;2023-06-22T07:55:39;23.70;99.90
22974;DHT22;11653;50.848;4.584;2023-06-22T07:58:04;23.60;99.90
22974;DHT22;11653;50.848;4.584;2023-06-22T08:00:30;23.60;99.90
22974;DHT22;11653;50.848;4.584;2023-06-22T08:02:56;23.40;99.90
22974;DHT22;11653;50.848;4.584;2023-06-22T08:05:22;23.40;99.90
22974;DHT22;11653;50.848;4.584;2023-06-22T08:07:48;23.30;99.90
22974;DHT22;11653;50.848;4.584;2023-06-22T08:10:13;23.40;99.90
22974;DHT22;11653;50.848;4.584;2023-06-22T08:12:40;23.40;99.90
22974;DHT22;11653;50.848;4.584;2023-06-22T08:15:06;23.30;99.90
22974;DHT22;11653;50.848;4.584;2023-06-22T08:17:33;23.30;99.90
22974;DHT22;11653;50.848;4.584;2023-06-22T08:19:58;23.20;99.90
22974;DHT22;11653;50.848;4.584;2023-06-22T08:22:24;23.20;99.90
22974;DHT22;11653;50.848;4.584;2023-06-22T08:24:50;23.00;99.90
22974;DHT22;11653;50.848;4.584;2023-06-22T08:27:16;23.10;99.90
22974;DHT22;11653;50.848;4.584;2023-06-22T08:29:43;23.00;99.90
22974;DHT22;11653;50.848;4.584;2023-06-22T08:32:11;23.00;99.90
22974;DHT22;11653;50.848;4.584;2023-06-22T08:34:37;23.00;99.90
22974;DHT22;11653;50.848;4.584;2023-06-22T08:37:02;23.00;99.90
22974;DHT22;11653;50.848;4.584;2023-06-22T08:39:32;23.10;99.90
22974;DHT22;11653;50.848;4.584;2023-06-22T08:41:58;23.20;99.90
22974;DHT22;11653;50.848;4.584;2023-06-22T08:44:23;23.30;99.90
22974;DHT22;11653;50.848;4.584;2023-06-22T08:46:49;23.30;99.90
22974;DHT22;11653;50.848;4.584;2023-06-22T08:49:14;23.40;99.90
22974;DHT22;11653;50.848;4.584;2023-06-22T08:51:40;23.40;99.90
22974;DHT22;11653;50.848;4.584;2023-06-22T08:54:06;23.40;99.90
22974;DHT22;11653;50.848;4.584;2023-06-22T08:56:31;23.50;99.90
22974;DHT22;11653;50.848;4.584;2023-06-22T08:58:57;23.50;99.90
22974;DHT22;11653;50.848;4.584;2023-06-22T09:01:23;23.60;99.90
22974;DHT22;11653;50.848;4.584;2023-06-22T09:03:49;23.70;99.90
22974;DHT22;11653;50.848;4.584;2023-06-22T09:06:23;23.50;99.90
22974;DHT22;11653;50.848;4.584;2023-06-22T09:08:48;23.40;99.90
22974;DHT22;11653;50.848;4.584;2023-06-22T09:11:14;23.10;99.90
22974;DHT22;11653;50.848;4.584;2023-06-22T09:13:40;23.10;99.90
22974;DHT22;11653;50.848;4.584;2023-06-22T09:16:06;23.00;99.90
22974;DHT22;11653;50.848;4.584;2023-06-22T09:18:33;23.00;99.90
22974;DHT22;11653;50.848;4.584;2023-06-22T09:20:59;23.00;99.90
22974;DHT22;11653;50.848;4.584;2023-06-22T09:23:25;23.00;99.90
22974;DHT22;11653;50.848;4.584;2023-06-22T09:25:51;23.00;99.90
22974;DHT22;11653;50.848;4.584;2023-06-22T09:28:16;23.00;99.90
22974;DHT22;11653;50.848;4.584;2023-06-22T09:30:45;23.00;99.90
22974;DHT22;11653;50.848;4.584;2023-06-22T09:33:11;22.80;99.90
22974;DHT22;11653;50.848;4.584;2023-06-22T09:35:36;22.70;99.90
22974;DHT22;11653;50.848;4.584;2023-06-22T09:38:02;22.60;99.90
22974;DHT22;11653;50.848;4.584;2023-06-22T09:40:28;22.60;99.90
22974;DHT22;11653;50.848;4.584;2023-06-22T09:42:54;22.60;99.90
22974;DHT22;11653;50.848;4.584;2023-06-22T09:45:22;22.50;99.90
22974;DHT22;11653;50.848;4.584;2023-06-22T09:48:05;22.40;99.90
22974;DHT22;11653;50.848;4.584;2023-06-22T09:53:51;22.20;99.90
22974;DHT22;11653;50.848;4.584;2023-06-22T09:56:30;22.00;99.90
22974;DHT22;11653;50.848;4.584;2023-06-22T09:58:56;21.80;99.90
22974;DHT22;11653;50.848;4.584;2023-06-22T10:01:22;21.80;99.90
22974;DHT22;11653;50.848;4.584;2023-06-22T10:03:48;21.60;99.90
22974;DHT22;11653;50.848;4.584;2023-06-22T10:06:14;21.50;99.90
22974;DHT22;11653;50.848;4.584;2023-06-22T10:08:41;21.30;99.90
22974;DHT22;11653;50.848;4.584;2023-06-22T10:11:06;21.30;99.90
22974;DHT22;11653;50.848;4.584;2023-06-22T10:13:32;21.30;99.90
22974;DHT22;11653;50.848;4.584;2023-06-22T10:15:58;21.30;99.90
22974;DHT22;11653;50.848;4.584;2023-06-22T10:18:23;21.40;99.90
22974;DHT22;11653;50.848;4.584;2023-06-22T10:20:50;21.50;99.90
22974;DHT22;11653;50.848;4.584;2023-06-22T10:23:17;21.70;99.90
22974;DHT22;11653;50.848;4.584;2023-06-22T10:25:43;21.70;99.90
22974;DHT22;11653;50.848;4.584;2023-06-22T10:28:08;21.80;99.90
22974;DHT22;11653;50.848;4.584;2023-06-22T10:30:34;21.70;99.90
22974;DHT22;11653;50.848;4.584;2023-06-22T10:32:59;21.70;99.90
22974;DHT22;11653;50.848;4.584;2023-06-22T10:35:25;21.70;99.90
22974;DHT22;11653;50.848;4.584;2023-06-22T10:37:51;21.70;99.90
22974;DHT22;11653;50.848;4.584;2023-06-22T10:40:17;21.70;99.90
22974;DHT22;11653;50.848;4.584;2023-06-22T10:42:44;21.60;99.90
22974;DHT22;11653;50.848;4.584;2023-06-22T10:45:11;21.50;99.90
22974;DHT22;11653;50.848;4.584;2023-06-22T10:47:37;21.50;99.90
22974;DHT22;11653;50.848;4.584;2023-06-22T10:50:03;21.50;99.90
22974;DHT22;11653;50.848;4.584;2023-06-22T10:52:29;21.20;99.90
22974;DHT22;11653;50.848;4.584;2023-06-22T10:54:55;21.20;99.90
22974;DHT22;11653;50.848;4.584;2023-06-22T10:57:21;21.00;99.90
22974;DHT22;11653;50.848;4.584;2023-06-22T10:59:47;21.00;99.90
22974;DHT22;11653;50.848;4.584;2023-06-22T11:02:13;20.90;99.90
22974;DHT22;11653;50.848;4.584;2023-06-22T11:04:38;20.90;99.90
22974;DHT22;11653;50.848;4.584;2023-06-22T11:07:04;20.80;99.90
22974;DHT22;11653;50.848;4.584;2023-06-22T11:09:30;20.90;99.90
22974;DHT22;11653;50.848;4.584;2023-06-22T11:11:56;21.00;99.90
22974;DHT22;11653;50.848;4.584;2023-06-22T11:14:24;21.00;99.90
22974;DHT22;11653;50.848;4.584;2023-06-22T11:16:50;21.00;99.90
22974;DHT22;11653;50.848;4.584;2023-06-22T11:19:16;21.00;99.90
22974;DHT22;11653;50.848;4.584;2023-06-22T11:21:42;21.00;99.90
22974;DHT22;11653;50.848;4.584;2023-06-22T11:24:07;21.00;99.90
22974;DHT22;11653;50.848;4.584;2023-06-22T11:26:33;21.10;99.90
22974;DHT22;11653;50.848;4.584;2023-06-22T11:28:59;21.20;99.90
22974;DHT22;11653;50.848;4.584;2023-06-22T11:31:25;21.30;99.90
22974;DHT22;11653;50.848;4.584;2023-06-22T11:33:51;21.40;99.90
22974;DHT22;11653;50.848;4.584;2023-06-22T11:36:16;21.40;99.90
22974;DHT22;11653;50.848;4.584;2023-06-22T11:38:43;21.40;99.90
22974;DHT22;11653;50.848;4.584;2023-06-22T11:41:09;21.40;99.90
22974;DHT22;11653;50.848;4.584;2023-06-22T11:43:35;21.40;99.90
22974;DHT22;11653;50.848;4.584;2023-06-22T11:46:02;21.40;99.90
22974;DHT22;11653;50.848;4.584;2023-06-22T11:48:28;21.30;99.90
22974;DHT22;11653;50.848;4.584;2023-06-22T11:50:54;21.40;99.90
22974;DHT22;11653;50.848;4.584;2023-06-22T11:53:25;21.40;99.90
22974;DHT22;11653;50.848;4.584;2023-06-22T11:55:51;21.40;99.90
22974;DHT22;11653;50.848;4.584;2023-06-22T11:58:18;21.50;99.90
22974;DHT22;11653;50.848;4.584;2023-06-22T12:00:43;21.50;99.90
22974;DHT22;11653;50.848;4.584;2023-06-22T12:03:10;21.50;99.90
22974;DHT22;11653;50.848;4.584;2023-06-22T12:05:36;21.60;99.90
22974;DHT22;11653;50.848;4.584;2023-06-22T12:08:02;21.50;99.90
22974;DHT22;11653;50.848;4.584;2023-06-22T12:10:28;21.60;99.90
22974;DHT22;11653;50.848;4.584;2023-06-22T12:12:56;21.50;99.90
22974;DHT22;11653;50.848;4.584;2023-06-22T12:15:26;21.50;99.90
22974;DHT22;11653;50.848;4.584;2023-06-22T12:17:52;21.60;99.90
22974;DHT22;11653;50.848;4.584;2023-06-22T12:20:17;21.30;99.90
22974;DHT22;11653;50.848;4.584;2023-06-22T12:22:44;21.30;99.90
22974;DHT22;11653;50.848;4.584;2023-06-22T12:25:10;21.20;99.90
22974;DHT22;11653;50.848;4.584;2023-06-22T12:27:36;21.10;99.90
22974;DHT22;11653;50.848;4.584;2023-06-22T12:30:03;21.10;99.90
22974;DHT22;11653;50.848;4.584;2023-06-22T12:32:29;21.10;99.90
22974;DHT22;11653;50.848;4.584;2023-06-22T12:34:55;21.00;99.90
22974;DHT22;11653;50.848;4.584;2023-06-22T12:37:21;21.00;99.90
22974;DHT22;11653;50.848;4.584;2023-06-22T12:39:47;21.10;99.90
22974;DHT22;11653;50.848;4.584;2023-06-22T12:42:13;21.10;99.90
22974;DHT22;11653;50.848;4.584;2023-06-22T12:44:39;21.10;99.90
22974;DHT22;11653;50.848;4.584;2023-06-22T12:47:08;21.10;99.90
22974;DHT22;11653;50.848;4.584;2023-06-22T12:49:34;21.20;99.90
22974;DHT22;11653;50.848;4.584;2023-06-22T12:52:00;21.10;99.90
22974;DHT22;11653;50.848;4.584;2023-06-22T12:54:26;21.10;99.90
22974;DHT22;11653;50.848;4.584;2023-06-22T12:56:53;21.00;99.90
22974;DHT22;11653;50.848;4.584;2023-06-22T12:59:19;21.00;99.90
22974;DHT22;11653;50.848;4.584;2023-06-22T13:01:45;21.00;99.90
22974;DHT22;11653;50.848;4.584;2023-06-22T13:04:11;20.80;99.90
22974;DHT22;11653;50.848;4.584;2023-06-22T13:06:43;20.90;99.90
22974;DHT22;11653;50.848;4.584;2023-06-22T13:09:13;21.00;99.90
22974;DHT22;11653;50.848;4.584;2023-06-22T13:11:38;21.00;99.90
22974;DHT22;11653;50.848;4.584;2023-06-22T13:14:04;21.10;99.90
22974;DHT22;11653;50.848;4.584;2023-06-22T13:16:30;21.10;99.90
22974;DHT22;11653;50.848;4.584;2023-06-22T13:18:55;21.00;99.90
22974;DHT22;11653;50.848;4.584;2023-06-22T13:21:21;21.00;99.90
22974;DHT22;11653;50.848;4.584;2023-06-22T13:23:47;21.00;99.90
22974;DHT22;11653;50.848;4.584;2023-06-22T13:26:12;21.00;99.90
22974;DHT22;11653;50.848;4.584;2023-06-22T13:28:38;21.00;99.90
22974;DHT22;11653;50.848;4.584;2023-06-22T13:31:04;21.00;99.90
22974;DHT22;11653;50.848;4.584;2023-06-22T13:33:29;20.90;99.90
22974;DHT22;11653;50.848;4.584;2023-06-22T13:35:55;21.00;99.90
22974;DHT22;11653;50.848;4.584;2023-06-22T13:38:21;21.10;99.90
22974;DHT22;11653;50.848;4.584;2023-06-22T13:40:48;21.10;99.90
22974;DHT22;11653;50.848;4.584;2023-06-22T13:43:14;21.00;99.90
22974;DHT22;11653;50.848;4.584;2023-06-22T13:45:41;20.90;99.90
22974;DHT22;11653;50.848;4.584;2023-06-22T13:48:07;20.90;99.90
22974;DHT22;11653;50.848;4.584;2023-06-22T13:50:32;20.90;99.90
22974;DHT22;11653;50.848;4.584;2023-06-22T13:52:58;20.80;99.90
22974;DHT22;11653;50.848;4.584;2023-06-22T13:55:24;20.70;99.90
22974;DHT22;11653;50.848;4.584;2023-06-22T13:57:49;20.80;99.90
22974;DHT22;11653;50.848;4.584;2023-06-22T14:00:17;20.70;99.90
22974;DHT22;11653;50.848;4.584;2023-06-22T14:02:42;20.70;99.90
22974;DHT22;11653;50.848;4.584;2023-06-22T14:05:09;20.70;99.90
22974;DHT22;11653;50.848;4.584;2023-06-22T14:07:35;20.70;99.90
22974;DHT22;11653;50.848;4.584;2023-06-22T14:10:01;20.60;99.90
22974;DHT22;11653;50.848;4.584;2023-06-22T14:12:26;20.60;99.90
22974;DHT22;11653;50.848;4.584;2023-06-22T14:14:52;20.70;99.90
22974;DHT22;11653;50.848;4.584;2023-06-22T14:17:18;20.70;99.90
22974;DHT22;11653;50.848;4.584;2023-06-22T14:19:49;20.80;99.90
22974;DHT22;11653;50.848;4.584;2023-06-22T14:22:18;20.70;99.90
22974;DHT22;11653;50.848;4.584;2023-06-22T14:24:44;20.80;99.90
22974;DHT22;11653;50.848;4.584;2023-06-22T14:27:09;20.70;99.90
22974;DHT22;11653;50.848;4.584;2023-06-22T14:29:35;20.70;99.90
22974;DHT22;11653;50.848;4.584;2023-06-22T14:32:01;20.70;99.90
22974;DHT22;11653;50.848;4.584;2023-06-22T14:34:26;20.80;99.90
22974;DHT22;11653;50.848;4.584;2023-06-22T14:36:52;20.80;99.90
22974;DHT22;11653;50.848;4.584;2023-06-22T14:39:18;20.70;99.90
22974;DHT22;11653;50.848;4.584;2023-06-22T14:41:43;20.60;99.90
22974;DHT22;11653;50.848;4.584;2023-06-22T14:44:09;20.70;99.90
22974;DHT22;11653;50.848;4.584;2023-06-22T14:46:35;20.80;99.90
22974;DHT22;11653;50.848;4.584;2023-06-22T14:49:00;20.70;99.90
22974;DHT22;11653;50.848;4.584;2023-06-22T14:51:26;20.70;99.90
22974;DHT22;11653;50.848;4.584;2023-06-22T14:53:52;20.70;99.90
22974;DHT22;11653;50.848;4.584;2023-06-22T14:56:18;20.60;99.90
22974;DHT22;11653;50.848;4.584;2023-06-22T14:58:43;20.60;99.90
22974;DHT22;11653;50.848;4.584;2023-06-22T15:01:12;20.60;99.90
22974;DHT22;11653;50.848;4.584;2023-06-22T15:03:38;20.60;99.90
22974;DHT22;11653;50.848;4.584;2023-06-22T15:06:04;20.70;99.90
22974;DHT22;11653;50.848;4.584;2023-06-22T15:08:30;20.70;99.90
22974;DHT22;11653;50.848;4.584;2023-06-22T15:10:58;20.80;99.90
22974;DHT22;11653;50.848;4.584;2023-06-22T15:13:24;20.70;99.90
22974;DHT22;11653;50.848;4.584;2023-06-22T15:15:50;20.70;99.90
22974;DHT22;11653;50.848;4.584;2023-06-22T15:18:16;20.90;99.90
22974;DHT22;11653;50.848;4.584;2023-06-22T15:20:43;20.90;99.90
22974;DHT22;11653;50.848;4.584;2023-06-22T15:23:13;20.90;99.90
22974;DHT22;11653;50.848;4.584;2023-06-22T15:25:38;21.00;99.90
22974;DHT22;11653;50.848;4.584;2023-06-22T15:28:04;21.00;99.90
22974;DHT22;11653;50.848;4.584;2023-06-22T15:30:30;21.10;99.90
22974;DHT22;11653;50.848;4.584;2023-06-22T15:32:57;21.10;99.90
22974;DHT22;11653;50.848;4.584;2023-06-22T15:35:22;21.10;99.90
22974;DHT22;11653;50.848;4.584;2023-06-22T15:37:48;21.10;99.90